sensor_id;sensor_type;location;lat;lon;timestamp;P1;durP1;ratioP1;P2;durP2;ratioP2
7215;SDS011;3649;48.798;9.798;2023-03-01T00:01:11;17.40;;;13.40;;
7215;SDS011;3649;48.798;9.798;2023-03-01T00:03:40;16.33;;;12.33;;
7215;SDS011;3649;48.798;9.798;2023-03-01T00:06:07;18.80;;;13.73;;
7215;SDS011;3649;48.798;9.798;2023-03-01T00:08:34;17.57;;;12.60;;
7215;SDS011;3649;48.798;9.798;2023-03-01T00:13:33;15.97;;;12.00;;
7215;SDS011;3649;48.798;9.798;2023-03-01T00:16:02;17.17;;;12.30;;
7215;SDS011;3649;48.798;9.798;2023-03-01T00:18:33;17.33;;;13.07;;
7215;SDS011;3649;48.798;9.798;2023-03-01T00:21:00;22.37;;;13.20;;
7215;SDS011;3649;48.798;9.798;2023-03-01T00:23:27;15.03;;;13.17;;
7215;SDS011;3649;48.798;9.798;2023-03-01T00:25:55;17.67;;;13.50;;
7215;SDS011;3649;48.798;9.798;2023-03-01T00:28:21;19.17;;;13.67;;
7215;SDS011;3649;48.798;9.798;2023-03-01T00:30:48;19.27;;;13.43;;
7215;SDS011;3649;48.798;9.798;2023-03-01T00:33:16;16.50;;;12.50;;
7215;SDS011;3649;48.798;9.798;2023-03-01T00:35:43;17.33;;;12.50;;
7215;SDS011;3649;48.798;9.798;2023-03-01T00:38:10;14.07;;;11.23;;
7215;SDS011;3649;48.798;9.798;2023-03-01T00:40:37;16.60;;;11.77;;
7215;SDS011;3649;48.798;9.798;2023-03-01T00:43:04;14.47;;;11.33;;
7215;SDS011;3649;48.798;9.798;2023-03-01T00:45:32;17.23;;;12.17;;
7215;SDS011;3649;48.798;9.798;2023-03-01T00:47:59;16.20;;;12.70;;
7215;SDS011;3649;48.798;9.798;2023-03-01T00:50:25;19.27;;;12.00;;
7215;SDS011;3649;48.798;9.798;2023-03-01T00:52:55;13.30;;;11.27;;
7215;SDS011;3649;48.798;9.798;2023-03-01T00:55:23;16.23;;;12.53;;
7215;SDS011;3649;48.798;9.798;2023-03-01T00:57:50;18.27;;;12.60;;
7215;SDS011;3649;48.798;9.798;2023-03-01T01:00:17;17.43;;;13.30;;
7215;SDS011;3649;48.798;9.798;2023-03-01T01:02:45;15.53;;;12.50;;
7215;SDS011;3649;48.798;9.798;2023-03-01T01:05:12;18.37;;;12.73;;
7215;SDS011;3649;48.798;9.798;2023-03-01T01:07:39;20.33;;;13.67;;
7215;SDS011;3649;48.798;9.798;2023-03-01T01:10:06;17.10;;;12.80;;
7215;SDS011;3649;48.798;9.798;2023-03-01T01:12:34;21.13;;;12.77;;
7215;SDS011;3649;48.798;9.798;2023-03-01T01:15:00;17.17;;;13.57;;
7215;SDS011;3649;48.798;9.798;2023-03-01T01:17:27;15.03;;;12.70;;
7215;SDS011;3649;48.798;9.798;2023-03-01T01:19:54;14.63;;;12.57;;
7215;SDS011;3649;48.798;9.798;2023-03-01T01:22:21;17.57;;;12.40;;
7215;SDS011;3649;48.798;9.798;2023-03-01T01:24:48;17.43;;;12.93;;
7215;SDS011;3649;48.798;9.798;2023-03-01T01:27:14;14.87;;;12.33;;
7215;SDS011;3649;48.798;9.798;2023-03-01T01:29:41;16.47;;;12.13;;
7215;SDS011;3649;48.798;9.798;2023-03-01T01:32:08;16.63;;;11.93;;
7215;SDS011;3649;48.798;9.798;2023-03-01T01:34:35;14.60;;;12.37;;
7215;SDS011;3649;48.798;9.798;2023-03-01T01:37:02;18.40;;;13.90;;
7215;SDS011;3649;48.798;9.798;2023-03-01T01:39:29;17.87;;;12.60;;
7215;SDS011;3649;48.798;9.798;2023-03-01T01:41:56;16.27;;;13.27;;
7215;SDS011;3649;48.798;9.798;2023-03-01T01:44:24;15.47;;;12.03;;
7215;SDS011;3649;48.798;9.798;2023-03-01T01:46:54;18.83;;;13.53;;
7215;SDS011;3649;48.798;9.798;2023-03-01T01:49:34;17.23;;;13.27;;
7215;SDS011;3649;48.798;9.798;2023-03-01T01:52:30;19.67;;;13.33;;
7215;SDS011;3649;48.798;9.798;2023-03-01T01:57:36;22.70;;;13.93;;
7215;SDS011;3649;48.798;9.798;2023-03-01T02:00:08;18.50;;;13.57;;
7215;SDS011;3649;48.798;9.798;2023-03-01T02:02:37;18.20;;;12.47;;
7215;SDS011;3649;48.798;9.798;2023-03-01T02:05:49;18.57;;;13.63;;
7215;SDS011;3649;48.798;9.798;2023-03-01T02:08:05;17.33;;;13.50;;
7215;SDS011;3649;48.798;9.798;2023-03-01T02:10:33;16.17;;;12.53;;
7215;SDS011;3649;48.798;9.798;2023-03-01T02:13:01;16.43;;;12.43;;
7215;SDS011;3649;48.798;9.798;2023-03-01T02:15:33;15.90;;;13.13;;
7215;SDS011;3649;48.798;9.798;2023-03-01T02:18:01;18.33;;;12.80;;
7215;SDS011;3649;48.798;9.798;2023-03-01T02:22:56;15.67;;;12.00;;
7215;SDS011;3649;48.798;9.798;2023-03-01T02:28:19;17.17;;;13.20;;
7215;SDS011;3649;48.798;9.798;2023-03-01T02:30:49;15.97;;;12.50;;
7215;SDS011;3649;48.798;9.798;2023-03-01T02:33:36;19.07;;;12.80;;
7215;SDS011;3649;48.798;9.798;2023-03-01T02:36:07;17.80;;;13.37;;
7215;SDS011;3649;48.798;9.798;2023-03-01T02:38:40;21.10;;;12.93;;
7215;SDS011;3649;48.798;9.798;2023-03-01T02:41:07;18.80;;;13.30;;
7215;SDS011;3649;48.798;9.798;2023-03-01T02:43:36;16.87;;;13.57;;
7215;SDS011;3649;48.798;9.798;2023-03-01T02:46:05;19.97;;;13.80;;
7215;SDS011;3649;48.798;9.798;2023-03-01T02:48:45;16.07;;;13.70;;
7215;SDS011;3649;48.798;9.798;2023-03-01T02:56:40;20.40;;;15.03;;
7215;SDS011;3649;48.798;9.798;2023-03-01T02:59:08;20.87;;;13.53;;
7215;SDS011;3649;48.798;9.798;2023-03-01T03:01:36;16.80;;;13.23;;
7215;SDS011;3649;48.798;9.798;2023-03-01T03:04:04;18.53;;;13.53;;
7215;SDS011;3649;48.798;9.798;2023-03-01T03:06:36;18.47;;;14.27;;
7215;SDS011;3649;48.798;9.798;2023-03-01T03:09:04;18.83;;;13.07;;
7215;SDS011;3649;48.798;9.798;2023-03-01T03:11:31;19.73;;;13.70;;
7215;SDS011;3649;48.798;9.798;2023-03-01T03:13:58;18.53;;;13.70;;
7215;SDS011;3649;48.798;9.798;2023-03-01T03:16:25;17.20;;;12.93;;
7215;SDS011;3649;48.798;9.798;2023-03-01T03:18:52;18.87;;;14.03;;
7215;SDS011;3649;48.798;9.798;2023-03-01T03:21:18;16.67;;;13.33;;
7215;SDS011;3649;48.798;9.798;2023-03-01T03:23:45;19.00;;;14.17;;
7215;SDS011;3649;48.798;9.798;2023-03-01T03:26:12;17.27;;;13.73;;
7215;SDS011;3649;48.798;9.798;2023-03-01T03:28:41;18.47;;;13.97;;
7215;SDS011;3649;48.798;9.798;2023-03-01T03:31:08;19.87;;;13.60;;
7215;SDS011;3649;48.798;9.798;2023-03-01T03:33:35;19.97;;;13.27;;
7215;SDS011;3649;48.798;9.798;2023-03-01T03:36:02;17.37;;;13.23;;
7215;SDS011;3649;48.798;9.798;2023-03-01T03:38:29;17.77;;;14.10;;
7215;SDS011;3649;48.798;9.798;2023-03-01T03:41:03;18.07;;;14.80;;
7215;SDS011;3649;48.798;9.798;2023-03-01T03:43:35;15.33;;;12.77;;
7215;SDS011;3649;48.798;9.798;2023-03-01T03:46:03;16.87;;;13.30;;
7215;SDS011;3649;48.798;9.798;2023-03-01T03:48:34;17.63;;;13.67;;
7215;SDS011;3649;48.798;9.798;2023-03-01T03:51:02;19.97;;;14.20;;
7215;SDS011;3649;48.798;9.798;2023-03-01T03:53:31;19.57;;;15.17;;
7215;SDS011;3649;48.798;9.798;2023-03-01T03:55:58;22.00;;;13.40;;
7215;SDS011;3649;48.798;9.798;2023-03-01T03:58:25;17.03;;;13.60;;
7215;SDS011;3649;48.798;9.798;2023-03-01T04:00:53;18.10;;;13.63;;
7215;SDS011;3649;48.798;9.798;2023-03-01T04:03:23;21.03;;;13.90;;
7215;SDS011;3649;48.798;9.798;2023-03-01T04:05:51;18.97;;;14.23;;
7215;SDS011;3649;48.798;9.798;2023-03-01T04:08:19;19.07;;;13.13;;
7215;SDS011;3649;48.798;9.798;2023-03-01T04:10:48;17.50;;;13.67;;
7215;SDS011;3649;48.798;9.798;2023-03-01T04:13:17;19.57;;;13.57;;
7215;SDS011;3649;48.798;9.798;2023-03-01T04:15:49;22.40;;;14.67;;
7215;SDS011;3649;48.798;9.798;2023-03-01T04:18:17;19.43;;;14.53;;
7215;SDS011;3649;48.798;9.798;2023-03-01T04:20:46;17.90;;;13.97;;
7215;SDS011;3649;48.798;9.798;2023-03-01T04:23:14;18.23;;;13.87;;
7215;SDS011;3649;48.798;9.798;2023-03-01T04:25:54;19.20;;;13.63;;
7215;SDS011;3649;48.798;9.798;2023-03-01T04:28:23;22.97;;;13.93;;
7215;SDS011;3649;48.798;9.798;2023-03-01T04:31:02;26.83;;;14.87;;
7215;SDS011;3649;48.798;9.798;2023-03-01T04:33:43;31.60;;;18.13;;
7215;SDS011;3649;48.798;9.798;2023-03-01T04:36:15;33.53;;;18.43;;
7215;SDS011;3649;48.798;9.798;2023-03-01T04:38:43;35.13;;;18.10;;
7215;SDS011;3649;48.798;9.798;2023-03-01T04:41:14;34.93;;;19.43;;
7215;SDS011;3649;48.798;9.798;2023-03-01T04:43:42;24.17;;;15.93;;
7215;SDS011;3649;48.798;9.798;2023-03-01T04:46:11;20.33;;;15.10;;
7215;SDS011;3649;48.798;9.798;2023-03-01T04:48:41;21.53;;;15.27;;
7215;SDS011;3649;48.798;9.798;2023-03-01T04:51:09;20.20;;;15.47;;
7215;SDS011;3649;48.798;9.798;2023-03-01T04:53:40;21.70;;;15.23;;
7215;SDS011;3649;48.798;9.798;2023-03-01T04:56:07;20.80;;;14.40;;
7215;SDS011;3649;48.798;9.798;2023-03-01T04:58:35;22.13;;;15.43;;
7215;SDS011;3649;48.798;9.798;2023-03-01T05:01:07;19.33;;;14.27;;
7215;SDS011;3649;48.798;9.798;2023-03-01T05:03:43;20.60;;;13.93;;
7215;SDS011;3649;48.798;9.798;2023-03-01T05:06:11;18.83;;;14.00;;
7215;SDS011;3649;48.798;9.798;2023-03-01T05:08:38;20.37;;;14.90;;
7215;SDS011;3649;48.798;9.798;2023-03-01T05:11:06;23.43;;;14.23;;
7215;SDS011;3649;48.798;9.798;2023-03-01T05:13:38;27.60;;;16.30;;
7215;SDS011;3649;48.798;9.798;2023-03-01T05:16:06;20.67;;;14.53;;
7215;SDS011;3649;48.798;9.798;2023-03-01T05:18:38;20.40;;;15.00;;
7215;SDS011;3649;48.798;9.798;2023-03-01T05:21:09;17.53;;;14.77;;
7215;SDS011;3649;48.798;9.798;2023-03-01T05:23:38;19.20;;;13.90;;
7215;SDS011;3649;48.798;9.798;2023-03-01T05:26:06;20.17;;;15.70;;
7215;SDS011;3649;48.798;9.798;2023-03-01T05:28:47;26.00;;;15.37;;
7215;SDS011;3649;48.798;9.798;2023-03-01T05:31:14;18.30;;;14.73;;
7215;SDS011;3649;48.798;9.798;2023-03-01T05:33:42;20.30;;;14.17;;
7215;SDS011;3649;48.798;9.798;2023-03-01T05:36:09;24.23;;;16.03;;
7215;SDS011;3649;48.798;9.798;2023-03-01T05:38:36;20.37;;;14.80;;
7215;SDS011;3649;48.798;9.798;2023-03-01T05:41:03;22.57;;;15.53;;
7215;SDS011;3649;48.798;9.798;2023-03-01T05:43:31;20.13;;;15.50;;
7215;SDS011;3649;48.798;9.798;2023-03-01T05:46:00;19.13;;;14.97;;
7215;SDS011;3649;48.798;9.798;2023-03-01T05:48:27;23.40;;;14.83;;
7215;SDS011;3649;48.798;9.798;2023-03-01T05:50:55;19.63;;;14.90;;
7215;SDS011;3649;48.798;9.798;2023-03-01T05:53:26;23.67;;;15.50;;
7215;SDS011;3649;48.798;9.798;2023-03-01T05:55:53;21.00;;;14.77;;
7215;SDS011;3649;48.798;9.798;2023-03-01T05:58:20;21.07;;;14.37;;
7215;SDS011;3649;48.798;9.798;2023-03-01T06:00:48;20.33;;;14.50;;
7215;SDS011;3649;48.798;9.798;2023-03-01T06:03:15;18.50;;;14.77;;
7215;SDS011;3649;48.798;9.798;2023-03-01T06:05:43;19.90;;;14.50;;
7215;SDS011;3649;48.798;9.798;2023-03-01T06:08:11;22.10;;;15.70;;
7215;SDS011;3649;48.798;9.798;2023-03-01T06:10:39;20.30;;;15.00;;
7215;SDS011;3649;48.798;9.798;2023-03-01T06:13:06;26.13;;;15.83;;
7215;SDS011;3649;48.798;9.798;2023-03-01T06:15:33;21.77;;;15.60;;
7215;SDS011;3649;48.798;9.798;2023-03-01T06:18:00;24.57;;;15.90;;
7215;SDS011;3649;48.798;9.798;2023-03-01T06:20:27;21.30;;;15.07;;
7215;SDS011;3649;48.798;9.798;2023-03-01T06:22:54;19.27;;;14.37;;
7215;SDS011;3649;48.798;9.798;2023-03-01T06:25:23;21.23;;;15.03;;
7215;SDS011;3649;48.798;9.798;2023-03-01T06:27:51;21.23;;;14.60;;
7215;SDS011;3649;48.798;9.798;2023-03-01T06:30:21;19.07;;;15.03;;
7215;SDS011;3649;48.798;9.798;2023-03-01T06:32:49;19.33;;;15.57;;
7215;SDS011;3649;48.798;9.798;2023-03-01T06:35:16;20.70;;;15.23;;
7215;SDS011;3649;48.798;9.798;2023-03-01T06:37:44;24.87;;;16.27;;
7215;SDS011;3649;48.798;9.798;2023-03-01T06:40:13;27.27;;;18.50;;
7215;SDS011;3649;48.798;9.798;2023-03-01T06:42:43;24.77;;;16.40;;
7215;SDS011;3649;48.798;9.798;2023-03-01T06:45:15;22.70;;;15.27;;
7215;SDS011;3649;48.798;9.798;2023-03-01T06:47:43;20.73;;;14.37;;
7215;SDS011;3649;48.798;9.798;2023-03-01T06:50:10;21.87;;;15.03;;
7215;SDS011;3649;48.798;9.798;2023-03-01T06:52:37;19.40;;;14.50;;
7215;SDS011;3649;48.798;9.798;2023-03-01T06:55:04;23.73;;;16.00;;
7215;SDS011;3649;48.798;9.798;2023-03-01T06:57:32;20.30;;;16.10;;
7215;SDS011;3649;48.798;9.798;2023-03-01T06:59:59;23.33;;;15.63;;
7215;SDS011;3649;48.798;9.798;2023-03-01T07:02:25;24.97;;;16.73;;
7215;SDS011;3649;48.798;9.798;2023-03-01T07:04:52;19.63;;;16.00;;
7215;SDS011;3649;48.798;9.798;2023-03-01T07:07:19;21.87;;;15.73;;
7215;SDS011;3649;48.798;9.798;2023-03-01T07:09:46;21.27;;;16.50;;
7215;SDS011;3649;48.798;9.798;2023-03-01T07:12:15;23.07;;;15.70;;
7215;SDS011;3649;48.798;9.798;2023-03-01T07:14:43;23.67;;;15.03;;
7215;SDS011;3649;48.798;9.798;2023-03-01T07:17:10;24.50;;;15.00;;
7215;SDS011;3649;48.798;9.798;2023-03-01T07:19:37;23.20;;;15.63;;
7215;SDS011;3649;48.798;9.798;2023-03-01T07:22:05;24.23;;;16.67;;
7215;SDS011;3649;48.798;9.798;2023-03-01T07:24:33;20.80;;;15.83;;
7215;SDS011;3649;48.798;9.798;2023-03-01T07:27:00;22.43;;;15.80;;
7215;SDS011;3649;48.798;9.798;2023-03-01T07:29:27;24.57;;;16.40;;
7215;SDS011;3649;48.798;9.798;2023-03-01T07:31:54;23.27;;;16.10;;
7215;SDS011;3649;48.798;9.798;2023-03-01T07:34:22;19.60;;;15.07;;
7215;SDS011;3649;48.798;9.798;2023-03-01T07:36:48;25.63;;;15.33;;
7215;SDS011;3649;48.798;9.798;2023-03-01T07:39:18;22.90;;;16.97;;
7215;SDS011;3649;48.798;9.798;2023-03-01T07:41:57;20.03;;;15.23;;
7215;SDS011;3649;48.798;9.798;2023-03-01T07:44:23;21.73;;;16.37;;
7215;SDS011;3649;48.798;9.798;2023-03-01T07:46:50;19.57;;;14.83;;
7215;SDS011;3649;48.798;9.798;2023-03-01T07:49:22;19.83;;;13.80;;
7215;SDS011;3649;48.798;9.798;2023-03-01T07:51:49;21.97;;;16.53;;
7215;SDS011;3649;48.798;9.798;2023-03-01T07:54:16;21.80;;;15.23;;
7215;SDS011;3649;48.798;9.798;2023-03-01T07:56:44;23.70;;;15.60;;
7215;SDS011;3649;48.798;9.798;2023-03-01T07:59:11;24.40;;;15.47;;
7215;SDS011;3649;48.798;9.798;2023-03-01T08:01:38;20.70;;;15.83;;
7215;SDS011;3649;48.798;9.798;2023-03-01T08:04:04;20.70;;;16.30;;
7215;SDS011;3649;48.798;9.798;2023-03-01T08:06:33;19.20;;;15.30;;
7215;SDS011;3649;48.798;9.798;2023-03-01T08:09:01;23.07;;;15.87;;
7215;SDS011;3649;48.798;9.798;2023-03-01T08:11:28;17.93;;;14.50;;
7215;SDS011;3649;48.798;9.798;2023-03-01T08:13:55;21.23;;;15.43;;
7215;SDS011;3649;48.798;9.798;2023-03-01T08:16:22;21.10;;;15.93;;
7215;SDS011;3649;48.798;9.798;2023-03-01T08:18:49;19.60;;;15.53;;
7215;SDS011;3649;48.798;9.798;2023-03-01T08:21:17;19.30;;;15.60;;
7215;SDS011;3649;48.798;9.798;2023-03-01T08:23:44;24.63;;;16.43;;
7215;SDS011;3649;48.798;9.798;2023-03-01T08:26:16;20.77;;;15.43;;
7215;SDS011;3649;48.798;9.798;2023-03-01T08:28:45;23.77;;;16.47;;
7215;SDS011;3649;48.798;9.798;2023-03-01T08:31:13;21.10;;;16.63;;
7215;SDS011;3649;48.798;9.798;2023-03-01T08:33:46;21.80;;;16.47;;
7215;SDS011;3649;48.798;9.798;2023-03-01T08:36:28;20.40;;;15.10;;
7215;SDS011;3649;48.798;9.798;2023-03-01T08:39:01;19.53;;;15.07;;
7215;SDS011;3649;48.798;9.798;2023-03-01T08:41:28;19.37;;;15.17;;
7215;SDS011;3649;48.798;9.798;2023-03-01T08:43:55;19.00;;;14.93;;
7215;SDS011;3649;48.798;9.798;2023-03-01T08:46:30;27.57;;;15.93;;
7215;SDS011;3649;48.798;9.798;2023-03-01T08:48:59;23.43;;;14.63;;
7215;SDS011;3649;48.798;9.798;2023-03-01T08:51:26;20.13;;;15.20;;
7215;SDS011;3649;48.798;9.798;2023-03-01T08:53:55;21.03;;;15.03;;
7215;SDS011;3649;48.798;9.798;2023-03-01T08:56:22;19.20;;;14.77;;
7215;SDS011;3649;48.798;9.798;2023-03-01T08:58:49;22.83;;;16.03;;
7215;SDS011;3649;48.798;9.798;2023-03-01T09:01:16;21.50;;;15.97;;
7215;SDS011;3649;48.798;9.798;2023-03-01T09:03:45;22.17;;;14.83;;
7215;SDS011;3649;48.798;9.798;2023-03-01T09:06:12;20.13;;;15.63;;
7215;SDS011;3649;48.798;9.798;2023-03-01T09:08:47;20.93;;;14.93;;
7215;SDS011;3649;48.798;9.798;2023-03-01T09:11:16;20.20;;;14.33;;
7215;SDS011;3649;48.798;9.798;2023-03-01T09:13:45;23.13;;;14.73;;
7215;SDS011;3649;48.798;9.798;2023-03-01T09:16:13;22.33;;;14.17;;
7215;SDS011;3649;48.798;9.798;2023-03-01T09:18:41;22.27;;;15.37;;
7215;SDS011;3649;48.798;9.798;2023-03-01T09:21:09;20.57;;;14.53;;
7215;SDS011;3649;48.798;9.798;2023-03-01T09:23:41;22.33;;;16.10;;
7215;SDS011;3649;48.798;9.798;2023-03-01T09:26:20;20.13;;;15.30;;
7215;SDS011;3649;48.798;9.798;2023-03-01T09:28:49;18.50;;;14.00;;
7215;SDS011;3649;48.798;9.798;2023-03-01T09:31:18;19.33;;;14.13;;
7215;SDS011;3649;48.798;9.798;2023-03-01T09:33:47;20.53;;;14.87;;
7215;SDS011;3649;48.798;9.798;2023-03-01T09:36:19;28.03;;;14.30;;
7215;SDS011;3649;48.798;9.798;2023-03-01T09:38:48;19.37;;;15.27;;
7215;SDS011;3649;48.798;9.798;2023-03-01T09:43:44;17.60;;;14.13;;
7215;SDS011;3649;48.798;9.798;2023-03-01T09:46:22;18.03;;;14.33;;
7215;SDS011;3649;48.798;9.798;2023-03-01T09:48:52;20.37;;;14.57;;
7215;SDS011;3649;48.798;9.798;2023-03-01T09:51:26;21.43;;;15.10;;
7215;SDS011;3649;48.798;9.798;2023-03-01T09:53:56;16.30;;;13.47;;
7215;SDS011;3649;48.798;9.798;2023-03-01T09:56:36;19.07;;;14.30;;
7215;SDS011;3649;48.798;9.798;2023-03-01T10:09:56;18.00;;;14.33;;
7215;SDS011;3649;48.798;9.798;2023-03-01T10:12:25;18.67;;;13.63;;
7215;SDS011;3649;48.798;9.798;2023-03-01T10:15:07;17.70;;;13.70;;
7215;SDS011;3649;48.798;9.798;2023-03-01T10:17:39;18.47;;;13.60;;
7215;SDS011;3649;48.798;9.798;2023-03-01T10:20:22;15.83;;;12.40;;
7215;SDS011;3649;48.798;9.798;2023-03-01T10:22:51;17.57;;;13.00;;
7215;SDS011;3649;48.798;9.798;2023-03-01T10:31:24;21.30;;;13.80;;
7215;SDS011;3649;48.798;9.798;2023-03-01T10:34:11;14.83;;;12.57;;
7215;SDS011;3649;48.798;9.798;2023-03-01T10:36:52;18.07;;;13.57;;
7215;SDS011;3649;48.798;9.798;2023-03-01T10:39:27;17.20;;;13.60;;
7215;SDS011;3649;48.798;9.798;2023-03-01T10:41:56;18.30;;;13.50;;
7215;SDS011;3649;48.798;9.798;2023-03-01T10:47:14;17.17;;;14.10;;
7215;SDS011;3649;48.798;9.798;2023-03-01T10:50:02;19.80;;;13.60;;
7215;SDS011;3649;48.798;9.798;2023-03-01T10:52:35;15.97;;;12.60;;
7215;SDS011;3649;48.798;9.798;2023-03-01T10:57:39;20.03;;;14.77;;
7215;SDS011;3649;48.798;9.798;2023-03-01T11:02:51;21.67;;;13.73;;
7215;SDS011;3649;48.798;9.798;2023-03-01T11:05:25;20.70;;;14.30;;
7215;SDS011;3649;48.798;9.798;2023-03-01T11:07:56;26.07;;;15.87;;
7215;SDS011;3649;48.798;9.798;2023-03-01T11:10:25;21.43;;;13.70;;
7215;SDS011;3649;48.798;9.798;2023-03-01T11:15:39;24.50;;;15.60;;
7215;SDS011;3649;48.798;9.798;2023-03-01T11:18:15;24.23;;;14.33;;
7215;SDS011;3649;48.798;9.798;2023-03-01T11:21:02;15.70;;;13.20;;
7215;SDS011;3649;48.798;9.798;2023-03-01T11:23:30;17.37;;;13.70;;
7215;SDS011;3649;48.798;9.798;2023-03-01T11:26:00;14.83;;;12.43;;
7215;SDS011;3649;48.798;9.798;2023-03-01T11:28:31;21.63;;;14.13;;
7215;SDS011;3649;48.798;9.798;2023-03-01T11:31:06;18.83;;;14.20;;
7215;SDS011;3649;48.798;9.798;2023-03-01T11:36:32;21.57;;;14.87;;
7215;SDS011;3649;48.798;9.798;2023-03-01T11:39:14;17.13;;;13.10;;
7215;SDS011;3649;48.798;9.798;2023-03-01T11:41:59;18.30;;;14.50;;
7215;SDS011;3649;48.798;9.798;2023-03-01T11:44:55;22.47;;;14.03;;
7215;SDS011;3649;48.798;9.798;2023-03-01T11:58:19;17.40;;;13.50;;
7215;SDS011;3649;48.798;9.798;2023-03-01T12:01:12;20.07;;;14.23;;
7215;SDS011;3649;48.798;9.798;2023-03-01T12:06:16;17.60;;;13.83;;
7215;SDS011;3649;48.798;9.798;2023-03-01T12:09:16;15.87;;;12.60;;
7215;SDS011;3649;48.798;9.798;2023-03-01T12:28:37;15.47;;;11.67;;
7215;SDS011;3649;48.798;9.798;2023-03-01T12:45:44;15.70;;;11.97;;
7215;SDS011;3649;48.798;9.798;2023-03-01T12:50:56;15.50;;;12.37;;
7215;SDS011;3649;48.798;9.798;2023-03-01T12:53:28;18.50;;;12.97;;
7215;SDS011;3649;48.798;9.798;2023-03-01T12:56:12;16.97;;;12.83;;
7215;SDS011;3649;48.798;9.798;2023-03-01T13:04:02;16.23;;;12.33;;
7215;SDS011;3649;48.798;9.798;2023-03-01T13:17:51;17.67;;;13.10;;
7215;SDS011;3649;48.798;9.798;2023-03-01T13:31:02;17.90;;;13.53;;
7215;SDS011;3649;48.798;9.798;2023-03-01T13:36:02;18.53;;;13.10;;
7215;SDS011;3649;48.798;9.798;2023-03-01T13:42:25;19.37;;;15.20;;
7215;SDS011;3649;48.798;9.798;2023-03-01T13:44:23;16.70;;;14.17;;
7215;SDS011;3649;48.798;9.798;2023-03-01T13:58:18;15.07;;;12.83;;
7215;SDS011;3649;48.798;9.798;2023-03-01T14:00:46;21.07;;;14.33;;
7215;SDS011;3649;48.798;9.798;2023-03-01T14:05:41;19.57;;;14.13;;
7215;SDS011;3649;48.798;9.798;2023-03-01T14:08:38;18.93;;;12.43;;
7215;SDS011;3649;48.798;9.798;2023-03-01T14:21:59;18.30;;;13.40;;
7215;SDS011;3649;48.798;9.798;2023-03-01T14:24:47;14.83;;;11.77;;
7215;SDS011;3649;48.798;9.798;2023-03-01T14:27:16;17.17;;;12.40;;
7215;SDS011;3649;48.798;9.798;2023-03-01T14:29:59;19.27;;;13.80;;
7215;SDS011;3649;48.798;9.798;2023-03-01T14:32:29;20.87;;;13.67;;
7215;SDS011;3649;48.798;9.798;2023-03-01T14:34:59;19.13;;;12.93;;
7215;SDS011;3649;48.798;9.798;2023-03-01T14:39:58;16.33;;;12.83;;
7215;SDS011;3649;48.798;9.798;2023-03-01T14:42:27;16.10;;;12.43;;
7215;SDS011;3649;48.798;9.798;2023-03-01T14:44:57;17.13;;;11.90;;
7215;SDS011;3649;48.798;9.798;2023-03-01T14:50:00;20.03;;;12.57;;
7215;SDS011;3649;48.798;9.798;2023-03-01T14:52:40;16.83;;;12.40;;
7215;SDS011;3649;48.798;9.798;2023-03-01T14:55:19;14.60;;;11.87;;
7215;SDS011;3649;48.798;9.798;2023-03-01T14:57:50;15.47;;;12.17;;
7215;SDS011;3649;48.798;9.798;2023-03-01T15:00:20;14.63;;;12.03;;
7215;SDS011;3649;48.798;9.798;2023-03-01T15:02:50;15.40;;;11.87;;
7215;SDS011;3649;48.798;9.798;2023-03-01T15:05:24;14.97;;;12.10;;
7215;SDS011;3649;48.798;9.798;2023-03-01T15:07:55;17.63;;;12.10;;
7215;SDS011;3649;48.798;9.798;2023-03-01T15:10:31;16.90;;;12.47;;
7215;SDS011;3649;48.798;9.798;2023-03-01T15:13:10;13.67;;;11.23;;
7215;SDS011;3649;48.798;9.798;2023-03-01T15:15:41;17.23;;;11.57;;
7215;SDS011;3649;48.798;9.798;2023-03-01T15:18:19;16.53;;;11.97;;
7215;SDS011;3649;48.798;9.798;2023-03-01T15:20:48;18.37;;;11.30;;
7215;SDS011;3649;48.798;9.798;2023-03-01T15:23:21;17.67;;;12.90;;
7215;SDS011;3649;48.798;9.798;2023-03-01T15:25:53;14.77;;;11.73;;
7215;SDS011;3649;48.798;9.798;2023-03-01T15:28:30;16.50;;;11.23;;
7215;SDS011;3649;48.798;9.798;2023-03-01T15:31:06;15.83;;;11.63;;
7215;SDS011;3649;48.798;9.798;2023-03-01T15:33:38;13.77;;;11.17;;
7215;SDS011;3649;48.798;9.798;2023-03-01T15:39:00;20.03;;;13.00;;
7215;SDS011;3649;48.798;9.798;2023-03-01T15:41:31;24.97;;;13.40;;
7215;SDS011;3649;48.798;9.798;2023-03-01T15:47:29;19.37;;;13.13;;
7215;SDS011;3649;48.798;9.798;2023-03-01T15:49:58;12.63;;;10.37;;
7215;SDS011;3649;48.798;9.798;2023-03-01T15:52:28;14.50;;;11.20;;
7215;SDS011;3649;48.798;9.798;2023-03-01T15:55:04;15.63;;;10.87;;
7215;SDS011;3649;48.798;9.798;2023-03-01T15:57:40;17.73;;;12.30;;
7215;SDS011;3649;48.798;9.798;2023-03-01T16:00:10;17.17;;;11.37;;
7215;SDS011;3649;48.798;9.798;2023-03-01T16:02:40;15.60;;;11.37;;
7215;SDS011;3649;48.798;9.798;2023-03-01T16:05:30;16.63;;;11.60;;
7215;SDS011;3649;48.798;9.798;2023-03-01T16:07:57;16.33;;;11.57;;
7215;SDS011;3649;48.798;9.798;2023-03-01T16:10:24;15.73;;;12.90;;
7215;SDS011;3649;48.798;9.798;2023-03-01T16:12:51;15.97;;;11.20;;
7215;SDS011;3649;48.798;9.798;2023-03-01T16:15:26;14.37;;;11.20;;
7215;SDS011;3649;48.798;9.798;2023-03-01T16:17:58;19.20;;;11.40;;
7215;SDS011;3649;48.798;9.798;2023-03-01T16:20:24;15.07;;;12.23;;
7215;SDS011;3649;48.798;9.798;2023-03-01T16:22:58;15.13;;;12.20;;
7215;SDS011;3649;48.798;9.798;2023-03-01T16:25:31;16.27;;;10.87;;
7215;SDS011;3649;48.798;9.798;2023-03-01T16:27:59;16.50;;;12.30;;
7215;SDS011;3649;48.798;9.798;2023-03-01T16:30:30;15.67;;;11.57;;
7215;SDS011;3649;48.798;9.798;2023-03-01T16:32:57;17.13;;;13.03;;
7215;SDS011;3649;48.798;9.798;2023-03-01T16:35:24;15.00;;;12.27;;
7215;SDS011;3649;48.798;9.798;2023-03-01T16:37:51;16.57;;;12.53;;
7215;SDS011;3649;48.798;9.798;2023-03-01T16:40:24;17.97;;;12.73;;
7215;SDS011;3649;48.798;9.798;2023-03-01T16:42:55;16.17;;;12.40;;
7215;SDS011;3649;48.798;9.798;2023-03-01T16:45:33;16.30;;;12.10;;
7215;SDS011;3649;48.798;9.798;2023-03-01T16:48:02;18.67;;;12.67;;
7215;SDS011;3649;48.798;9.798;2023-03-01T16:50:29;19.03;;;14.17;;
7215;SDS011;3649;48.798;9.798;2023-03-01T16:52:56;17.77;;;13.70;;
7215;SDS011;3649;48.798;9.798;2023-03-01T16:55:26;20.80;;;13.27;;
7215;SDS011;3649;48.798;9.798;2023-03-01T16:57:53;21.13;;;13.93;;
7215;SDS011;3649;48.798;9.798;2023-03-01T17:00:20;16.63;;;13.07;;
7215;SDS011;3649;48.798;9.798;2023-03-01T17:02:47;18.90;;;13.30;;
7215;SDS011;3649;48.798;9.798;2023-03-01T17:05:14;18.93;;;13.53;;
7215;SDS011;3649;48.798;9.798;2023-03-01T17:07:40;17.73;;;13.70;;
7215;SDS011;3649;48.798;9.798;2023-03-01T17:10:09;19.60;;;13.03;;
7215;SDS011;3649;48.798;9.798;2023-03-01T17:12:36;17.97;;;13.57;;
7215;SDS011;3649;48.798;9.798;2023-03-01T17:15:05;21.13;;;13.83;;
7215;SDS011;3649;48.798;9.798;2023-03-01T17:17:32;18.53;;;13.57;;
7215;SDS011;3649;48.798;9.798;2023-03-01T17:20:00;20.47;;;13.67;;
7215;SDS011;3649;48.798;9.798;2023-03-01T17:22:30;18.50;;;13.83;;
7215;SDS011;3649;48.798;9.798;2023-03-01T17:24:57;20.67;;;13.67;;
7215;SDS011;3649;48.798;9.798;2023-03-01T17:27:23;18.83;;;14.07;;
7215;SDS011;3649;48.798;9.798;2023-03-01T17:29:50;19.37;;;13.67;;
7215;SDS011;3649;48.798;9.798;2023-03-01T17:32:17;18.10;;;13.97;;
7215;SDS011;3649;48.798;9.798;2023-03-01T17:34:45;24.97;;;14.10;;
7215;SDS011;3649;48.798;9.798;2023-03-01T17:37:11;19.40;;;14.73;;
7215;SDS011;3649;48.798;9.798;2023-03-01T17:39:38;17.53;;;13.93;;
7215;SDS011;3649;48.798;9.798;2023-03-01T17:42:05;21.03;;;13.73;;
7215;SDS011;3649;48.798;9.798;2023-03-01T17:44:32;23.07;;;15.67;;
7215;SDS011;3649;48.798;9.798;2023-03-01T17:47:00;21.87;;;16.53;;
7215;SDS011;3649;48.798;9.798;2023-03-01T17:49:31;27.37;;;18.43;;
7215;SDS011;3649;48.798;9.798;2023-03-01T17:51:59;28.90;;;18.17;;